Time;durP1;ratioP1;P1;durP2;ratioP2;P2;SDS_P1;SDS_P2;PMS_P1;PMS_P2;Temp;Humidity;BMP_temperature;BMP_pressure;BME280_temperature;BME280_humidity;BME280_pressure;Samples;Min_cycle;Max_cycle;Signal;HPM_P1;HPM_P2
2023/06/16 00:02:13;;;;;;;7.55;4.18;;;17.50;86.20;;;;;;5013715;28;20030;-65
2023/06/16 00:04:40;;;;;;;5.90;3.78;;;17.50;86.60;;;;;;5012622;28;20041;-66
2023/06/16 00:07:06;;;;;;;7.65;4.53;;;17.50;85.30;;;;;;5013913;28;20116;-65
2023/06/16 00:09:32;;;;;;;7.28;4.10;;;17.50;84.70;;;;;;5013598;28;20129;-65
2023/06/16 00:11:58;;;;;;;8.43;4.15;;;17.40;84.40;;;;;;5013900;28;20077;-65
2023/06/16 00:14:24;;;;;;;8.60;4.15;;;17.40;84.20;;;;;;5012462;28;20073;-65
2023/06/16 00:16:52;;;;;;;7.57;4.15;;;17.40;83.90;;;;;;5013485;28;20116;-65
2023/06/16 00:19:18;;;;;;;7.18;4.30;;;17.40;84.10;;;;;;5012920;28;20038;-65
2023/06/16 00:21:45;;;;;;;7.40;4.13;;;17.40;84.30;;;;;;5012267;28;20474;-65
2023/06/16 00:24:11;;;;;;;9.95;5.45;;;17.30;84.30;;;;;;5013702;28;20048;-65
2023/06/16 00:26:37;;;;;;;8.38;4.43;;;17.30;86.80;;;;;;5012283;28;20038;-65
2023/06/16 00:29:04;;;;;;;7.13;4.15;;;17.20;87.00;;;;;;5012255;28;20077;-65
2023/06/16 00:31:31;;;;;;;8.50;5.32;;;17.20;86.30;;;;;;5012368;28;20061;-65
2023/06/16 00:33:58;;;;;;;7.50;4.38;;;17.20;87.50;;;;;;5013373;28;20041;-65
2023/06/16 00:36:23;;;;;;;7.82;4.47;;;17.10;86.90;;;;;;5013283;28;20034;-65
2023/06/16 00:38:49;;;;;;;8.77;4.45;;;17.10;86.60;;;;;;5013283;28;20378;-65
2023/06/16 00:41:15;;;;;;;7.25;4.10;;;17.10;86.40;;;;;;5013412;28;20481;-65
2023/06/16 00:43:42;;;;;;;7.32;4.40;;;17.00;86.20;;;;;;5011950;28;20046;-65
2023/06/16 00:46:09;;;;;;;7.50;4.85;;;17.00;85.90;;;;;;5013169;28;20112;-65
2023/06/16 00:48:36;;;;;;;7.45;4.57;;;17.00;86.20;;;;;;5012099;28;20068;-65
2023/06/16 00:51:03;;;;;;;6.80;4.60;;;17.00;87.70;;;;;;5013085;28;20129;-65
2023/06/16 00:53:31;;;;;;;9.23;6.10;;;16.90;88.60;;;;;;5013371;28;20057;-65
2023/06/16 00:55:58;;;;;;;10.40;6.25;;;16.80;89.00;;;;;;5012102;28;20053;-65
2023/06/16 00:58:24;;;;;;;8.18;5.60;;;16.80;92.30;;;;;;5013185;28;20042;-65
2023/06/16 01:00:51;;;;;;;7.35;4.57;;;16.70;91.80;;;;;;5013332;28;20481;-65
2023/06/16 01:03:17;;;;;;;7.70;5.13;;;16.70;91.30;;;;;;5013362;28;20473;-65
2023/06/16 01:05:44;;;;;;;7.95;5.80;;;16.70;90.80;;;;;;5012877;28;20038;-65
2023/06/16 01:08:43;;;;;;;9.07;5.40;;;16.60;90.90;;;;;;5012103;28;20042;-65
2023/06/16 01:11:51;;;;;;;9.38;6.10;;;16.60;91.10;;;;;;5011539;28;20089;-66
2023/06/16 01:14:33;;;;;;;7.72;5.45;;;16.60;92.70;;;;;;5012846;28;20061;-65
2023/06/16 01:17:01;;;;;;;7.55;5.07;;;16.40;92.80;;;;;;5013285;28;20124;-66
2023/06/16 01:19:39;;;;;;;9.00;5.30;;;16.40;92.00;;;;;;5013076;28;20038;-66
2023/06/16 01:22:31;;;;;;;8.80;5.40;;;16.40;91.70;;;;;;5012829;28;20101;-66
2023/06/16 01:25:00;;;;;;;7.57;5.03;;;16.40;91.50;;;;;;5013017;28;20046;-65
2023/06/16 01:27:29;;;;;;;6.80;4.97;;;16.40;91.20;;;;;;5013097;28;20045;-65
2023/06/16 01:29:58;;;;;;;8.52;5.20;;;16.50;90.90;;;;;;5012378;28;20096;-65
2023/06/16 01:32:26;;;;;;;7.35;4.93;;;16.50;90.70;;;;;;5016753;28;20041;-67
2023/06/16 01:34:53;;;;;;;9.18;4.75;;;16.50;90.60;;;;;;5016417;28;20048;-65
2023/06/16 01:37:20;;;;;;;7.50;4.80;;;16.50;90.40;;;;;;5016256;28;20053;-67
2023/06/16 01:39:46;;;;;;;8.73;5.05;;;16.60;90.40;;;;;;5016635;28;20089;-65
2023/06/16 01:42:15;;;;;;;7.82;4.70;;;16.50;90.60;;;;;;5016358;28;20045;-65
2023/06/16 01:44:42;;;;;;;7.88;4.50;;;16.50;90.80;;;;;;5016423;28;20042;-65
2023/06/16 01:47:09;;;;;;;7.28;4.65;;;16.50;90.80;;;;;;5015292;28;20112;-65
2023/06/16 01:49:35;;;;;;;7.50;4.30;;;16.40;90.60;;;;;;5014928;28;20065;-65
2023/06/16 01:52:01;;;;;;;7.43;4.32;;;16.40;90.50;;;;;;5014846;28;20053;-65
2023/06/16 01:54:28;;;;;;;6.45;4.05;;;16.40;90.30;;;;;;4998541;28;20486;-65
2023/06/16 01:56:54;;;;;;;7.10;4.57;;;16.40;90.30;;;;;;5015144;28;20053;-65
2023/06/16 01:59:20;;;;;;;7.45;4.55;;;16.40;90.00;;;;;;5016202;28;20038;-65
2023/06/16 02:01:52;;;;;;;8.18;4.57;;;16.30;90.00;;;;;;5015887;28;20052;-65
2023/06/16 02:04:22;;;;;;;7.15;4.32;;;16.30;90.20;;;;;;5016172;28;20111;-65
2023/06/16 02:06:50;;;;;;;7.05;4.30;;;16.30;90.30;;;;;;5015830;28;20482;-65
2023/06/16 02:09:17;;;;;;;7.40;3.90;;;16.20;90.20;;;;;;5014737;28;20474;-65
2023/06/16 02:11:44;;;;;;;8.38;4.35;;;16.20;90.10;;;;;;5014800;28;20104;-65
2023/06/16 02:14:10;;;;;;;6.82;4.20;;;16.20;90.30;;;;;;5014436;28;20100;-65
2023/06/16 02:16:37;;;;;;;6.13;4.00;;;16.20;90.50;;;;;;5016015;28;20416;-65
2023/06/16 02:19:03;;;;;;;7.18;4.38;;;16.00;91.50;;;;;;5015850;28;20052;-65
2023/06/16 02:21:29;;;;;;;7.63;4.85;;;16.00;91.30;;;;;;5014271;28;20481;-65
2023/06/16 02:23:55;;;;;;;8.00;5.03;;;16.00;91.60;;;;;;5015488;28;20084;-65
2023/06/16 02:26:21;;;;;;;7.88;4.50;;;15.80;93.20;;;;;;5015739;28;20045;-65
2023/06/16 02:28:48;;;;;;;7.07;4.15;;;15.80;92.90;;;;;;5015490;28;20103;-65
2023/06/16 02:31:17;;;;;;;8.02;4.78;;;15.70;92.70;;;;;;5014395;28;20042;-65
2023/06/16 02:33:44;;;;;;;9.25;4.53;;;15.60;93.20;;;;;;5015671;28;20038;-65
2023/06/16 02:36:10;;;;;;;9.32;4.88;;;15.60;93.60;;;;;;5015348;28;20041;-65
2023/06/16 02:38:36;;;;;;;7.20;4.30;;;15.50;94.40;;;;;;5014103;28;20496;-65
2023/06/16 02:41:02;;;;;;;7.22;4.10;;;15.40;94.30;;;;;;5015163;28;20041;-65
2023/06/16 02:43:28;;;;;;;6.60;3.80;;;15.40;93.80;;;;;;5013369;28;20041;-65
2023/06/16 02:45:54;;;;;;;7.30;4.35;;;15.40;93.30;;;;;;5015448;28;20042;-65
2023/06/16 02:48:20;;;;;;;6.68;3.80;;;15.40;93.00;;;;;;5015401;28;20045;-65
2023/06/16 02:50:45;;;;;;;7.18;4.00;;;15.40;92.80;;;;;;5013907;28;20049;-65
2023/06/16 02:53:13;;;;;;;7.30;4.40;;;15.40;92.60;;;;;;5015200;28;20068;-65
2023/06/16 02:55:39;;;;;;;7.68;3.92;;;15.40;92.70;;;;;;5015012;28;20045;-65
2023/06/16 02:58:05;;;;;;;7.53;3.88;;;15.30;92.90;;;;;;5014785;28;20495;-65
2023/06/16 03:00:30;;;;;;;7.25;3.90;;;15.30;92.60;;;;;;5015150;28;20117;-65
2023/06/16 03:02:56;;;;;;;9.60;4.07;;;15.30;92.50;;;;;;5014976;28;20401;-65
2023/06/16 03:05:23;;;;;;;7.53;4.03;;;15.30;92.30;;;;;;5014849;28;20049;-65
2023/06/16 03:07:49;;;;;;;7.85;4.05;;;15.30;92.20;;;;;;5014964;28;20057;-65
2023/06/16 03:10:15;;;;;;;6.70;4.05;;;15.30;92.20;;;;;;5014541;28;20069;-66
2023/06/16 03:12:40;;;;;;;7.35;4.10;;;15.20;92.20;;;;;;5014940;28;20046;-65
2023/06/16 03:15:07;;;;;;;7.15;4.45;;;15.20;92.10;;;;;;5013273;28;20129;-65
2023/06/16 03:17:33;;;;;;;8.30;4.25;;;15.10;92.20;;;;;;5013186;28;20045;-65
2023/06/16 03:19:58;;;;;;;7.38;4.70;;;15.10;92.20;;;;;;5014460;28;20061;-65
2023/06/16 03:22:24;;;;;;;7.30;4.20;;;15.10;92.20;;;;;;5014690;28;20045;-65
2023/06/16 03:24:50;;;;;;;6.80;4.38;;;15.10;92.30;;;;;;5014673;28;20042;-65
2023/06/16 03:27:16;;;;;;;7.28;4.82;;;15.10;92.30;;;;;;5013141;28;20050;-65
2023/06/16 03:29:43;;;;;;;8.25;4.97;;;15.10;92.40;;;;;;5014543;28;20053;-65
2023/06/16 03:32:09;;;;;;;6.93;4.60;;;15.00;92.90;;;;;;5014445;28;20045;-65
2023/06/16 03:34:35;;;;;;;8.38;5.45;;;15.00;92.90;;;;;;5014485;28;20478;-65
2023/06/16 03:37:01;;;;;;;7.28;4.68;;;15.00;93.60;;;;;;5012893;28;20042;-66
2023/06/16 03:39:27;;;;;;;8.00;5.10;;;15.00;94.00;;;;;;5014404;28;20122;-65
2023/06/16 03:41:53;;;;;;;8.00;4.90;;;15.00;93.90;;;;;;5014328;28;20046;-65
2023/06/16 03:44:18;;;;;;;8.55;4.97;;;15.00;93.80;;;;;;5013035;28;20136;-65
2023/06/16 03:46:44;;;;;;;8.82;5.07;;;15.00;93.80;;;;;;5014014;28;20092;-65
2023/06/16 03:49:10;;;;;;;7.95;5.35;;;15.00;94.30;;;;;;5014194;28;20050;-65
2023/06/16 03:51:37;;;;;;;7.75;5.13;;;15.00;94.70;;;;;;5012765;28;20120;-65
2023/06/16 03:54:03;;;;;;;7.75;5.38;;;15.00;94.70;;;;;;5013296;28;20375;-65
2023/06/16 03:56:29;;;;;;;7.82;4.80;;;15.10;94.80;;;;;;5014045;28;20046;-65
2023/06/16 03:58:55;;;;;;;7.78;4.93;;;15.10;94.90;;;;;;5013783;28;20481;-65
2023/06/16 04:01:22;;;;;;;10.48;5.63;;;15.00;94.60;;;;;;5013717;28;20104;-65
2023/06/16 04:03:51;;;;;;;12.48;5.50;;;15.00;95.60;;;;;;5012712;28;20394;-65
2023/06/16 04:06:17;;;;;;;8.02;5.80;;;14.90;96.80;;;;;;5013688;28;20049;-65
2023/06/16 04:08:44;;;;;;;8.80;6.00;;;14.80;97.60;;;;;;5013861;28;20042;-65
2023/06/16 04:11:10;;;;;;;9.23;5.63;;;14.80;97.40;;;;;;5012227;28;20053;-65
2023/06/16 04:13:36;;;;;;;9.25;6.03;;;14.80;98.10;;;;;;5013644;28;20563;-65
2023/06/16 04:16:02;;;;;;;11.20;6.68;;;14.80;99.10;;;;;;5013554;28;20095;-65
2023/06/16 04:18:27;;;;;;;8.77;5.65;;;14.80;99.90;;;;;;5013765;28;20046;-65
2023/06/16 04:20:53;;;;;;;9.52;6.15;;;14.80;99.90;;;;;;5012155;28;20046;-65
2023/06/16 04:23:19;;;;;;;10.43;6.55;;;14.80;99.90;;;;;;5013721;28;20042;-65
2023/06/16 04:25:45;;;;;;;9.52;5.90;;;14.80;99.90;;;;;;5013726;28;20038;-65
2023/06/16 04:28:14;;;;;;;8.55;5.95;;;14.80;99.90;;;;;;5013578;28;20493;-65
2023/06/16 04:30:40;;;;;;;9.93;6.63;;;14.80;99.90;;;;;;5013699;28;20041;-65
2023/06/16 04:33:07;;;;;;;12.23;6.28;;;14.90;99.90;;;;;;5012072;28;20050;-65
2023/06/16 04:35:33;;;;;;;10.55;6.53;;;14.90;99.90;;;;;;5013546;28;20037;-65
2023/06/16 04:38:00;;;;;;;10.32;7.00;;;14.90;99.90;;;;;;5013494;28;20116;-66
2023/06/16 04:40:32;;;;;;;12.50;7.20;;;14.80;99.90;;;;;;5012326;28;20049;-64
2023/06/16 04:42:58;;;;;;;8.95;6.95;;;14.80;99.90;;;;;;5011937;28;20052;-65
2023/06/16 04:45:24;;;;;;;8.18;5.57;;;14.80;99.90;;;;;;5013475;28;20042;-64
2023/06/16 04:47:50;;;;;;;9.15;6.00;;;14.90;99.90;;;;;;5013495;28;20045;-65
2023/06/16 04:50:16;;;;;;;10.25;6.60;;;15.30;99.90;;;;;;5012181;28;20128;-64
2023/06/16 04:52:43;;;;;;;10.80;7.32;;;15.00;99.90;;;;;;5013321;28;20045;-65
2023/06/16 04:55:08;;;;;;;11.52;7.78;;;15.20;99.90;;;;;;5012116;28;20053;-64
2023/06/16 04:57:35;;;;;;;10.60;7.15;;;15.40;99.90;;;;;;5012039;28;20118;-64
2023/06/16 05:00:05;;;;;;;12.07;7.32;;;15.90;99.90;;;;;;5012139;28;20175;-64
2023/06/16 05:02:32;;;;;;;10.75;7.30;;;16.70;99.90;;;;;;5013393;28;20053;-65
2023/06/16 05:04:58;;;;;;;10.45;6.95;;;17.50;99.90;;;;;;5012437;28;20050;-64
2023/06/16 05:07:24;;;;;;;10.32;7.00;;;18.20;99.90;;;;;;5017241;28;20042;-64
2023/06/16 05:09:50;;;;;;;10.80;7.00;;;18.80;99.90;;;;;;5017014;28;20042;-65
2023/06/16 05:12:15;;;;;;;9.68;6.97;;;19.40;99.90;;;;;;5015992;28;20398;-65
2023/06/16 05:14:41;;;;;;;9.27;6.70;;;19.90;99.90;;;;;;5016777;28;20120;-64
2023/06/16 05:17:07;;;;;;;10.00;7.05;;;20.30;99.90;;;;;;5016813;28;20120;-65
2023/06/16 05:19:33;;;;;;;9.68;7.45;;;20.70;99.90;;;;;;5015839;28;20041;-64
2023/06/16 05:21:59;;;;;;;9.10;6.90;;;20.60;99.90;;;;;;5001186;28;20148;-65
2023/06/16 05:24:25;;;;;;;9.65;6.70;;;21.30;99.90;;;;;;4971850;28;20042;-65
2023/06/16 05:26:51;;;;;;;11.48;6.88;;;22.10;98.90;;;;;;5015436;28;20050;-66
2023/06/16 05:29:17;;;;;;;9.93;6.50;;;23.10;95.80;;;;;;5016781;28;20405;-65
2023/06/16 05:31:43;;;;;;;9.57;6.82;;;23.50;94.20;;;;;;5016815;28;20092;-65
2023/06/16 05:34:09;;;;;;;10.68;6.55;;;23.90;92.20;;;;;;5015255;28;20045;-65
2023/06/16 05:36:35;;;;;;;9.63;7.10;;;24.30;90.80;;;;;;5016464;28;20050;-65
2023/06/16 05:39:07;;;;;;;9.52;7.28;;;24.40;90.20;;;;;;5015040;28;20045;-65
2023/06/16 05:41:34;;;;;;;10.13;7.30;;;24.90;88.60;;;;;;5016340;28;20081;-65
2023/06/16 05:44:00;;;;;;;10.45;6.70;;;25.70;85.70;;;;;;5016600;28;20030;-65
2023/06/16 05:46:26;;;;;;;10.25;8.40;;;25.60;82.20;;;;;;5016538;28;20041;-65
2023/06/16 05:48:54;;;;;;;10.10;7.35;;;25.80;79.80;;;;;;5016399;28;20374;-65
2023/06/16 05:51:20;;;;;;;10.48;7.53;;;25.90;78.10;;;;;;5015303;28;20042;-65
2023/06/16 05:53:45;;;;;;;10.68;7.30;;;26.10;77.20;;;;;;4998544;28;20508;-65
2023/06/16 05:56:11;;;;;;;10.32;8.10;;;26.40;76.60;;;;;;5015931;28;20045;-65
2023/06/16 05:58:37;;;;;;;11.27;8.70;;;26.10;75.00;;;;;;5015963;28;20072;-65
2023/06/16 06:01:05;;;;;;;9.88;8.48;;;26.00;73.80;;;;;;5014858;28;20045;-65
2023/06/16 06:03:31;;;;;;;11.05;7.55;;;26.30;73.70;;;;;;5014475;28;20042;-65
2023/06/16 06:05:57;;;;;;;11.25;8.07;;;25.90;74.00;;;;;;5016021;28;20088;-65
2023/06/16 06:08:27;;;;;;;10.48;7.10;;;26.20;72.90;;;;;;5016147;28;20474;-66
2023/06/16 06:10:53;;;;;;;10.77;7.43;;;26.90;71.10;;;;;;5015583;28;20062;-66
2023/06/16 06:13:19;;;;;;;9.80;7.25;;;27.00;71.10;;;;;;5015979;28;20108;-66
2023/06/16 06:15:45;;;;;;;11.57;7.07;;;27.00;69.10;;;;;;4998259;28;20046;-66
2023/06/16 06:18:11;;;;;;;10.73;6.80;;;27.40;70.00;;;;;;4997110;28;20081;-67
2023/06/16 06:20:39;;;;;;;10.48;7.80;;;27.60;67.80;;;;;;5015624;28;20505;-67
2023/06/16 06:23:05;;;;;;;9.57;6.50;;;27.50;66.80;;;;;;5015453;28;20033;-67
2023/06/16 06:25:31;;;;;;;10.18;6.68;;;27.80;65.60;;;;;;5015472;28;20164;-67
2023/06/16 06:27:57;;;;;;;9.73;7.07;;;28.10;65.20;;;;;;5015429;28;20082;-66
2023/06/16 06:30:24;;;;;;;9.65;6.65;;;28.00;63.70;;;;;;5015687;28;20042;-67
2023/06/16 06:32:50;;;;;;;11.45;9.00;;;27.80;63.70;;;;;;5015648;28;20068;-67
2023/06/16 06:35:16;;;;;;;10.63;8.27;;;27.00;63.90;;;;;;5015354;28;20037;-67
2023/06/16 06:37:42;;;;;;;11.25;7.35;;;26.90;65.80;;;;;;5015339;28;20050;-67
2023/06/16 06:40:08;;;;;;;11.30;6.95;;;26.50;67.80;;;;;;5015167;28;20490;-69
2023/06/16 06:42:34;;;;;;;9.98;7.10;;;27.00;67.60;;;;;;5015233;28;20052;-66
2023/06/16 06:45:01;;;;;;;9.75;6.90;;;27.10;65.60;;;;;;5015087;28;20034;-67
2023/06/16 06:47:26;;;;;;;9.30;6.60;;;27.00;66.10;;;;;;5015395;28;20457;-67
2023/06/16 06:49:56;;;;;;;9.93;7.20;;;27.40;65.50;;;;;;4997944;28;20072;-66
2023/06/16 06:52:22;;;;;;;9.63;7.43;;;27.20;65.40;;;;;;5015179;28;20048;-67
2023/06/16 06:54:47;;;;;;;10.93;8.02;;;27.60;64.20;;;;;;5015020;28;20041;-66
2023/06/16 06:57:14;;;;;;;9.43;7.22;;;27.70;63.60;;;;;;5014095;28;20088;-67
2023/06/16 06:59:42;;;;;;;8.98;6.53;;;27.30;62.90;;;;;;5014768;28;20048;-66
2023/06/16 07:02:08;;;;;;;8.60;6.28;;;27.50;63.10;;;;;;5015158;28;20046;-66
2023/06/16 07:04:34;;;;;;;8.25;6.13;;;27.20;64.00;;;;;;5014930;28;20049;-66
2023/06/16 07:07:01;;;;;;;8.55;6.18;;;27.50;64.10;;;;;;5015125;28;20525;-66
2023/06/16 07:09:27;;;;;;;8.85;6.13;;;27.90;62.80;;;;;;5014997;28;20045;-67
2023/06/16 07:11:53;;;;;;;8.55;5.85;;;28.40;61.90;;;;;;5014656;28;20054;-67
2023/06/16 07:14:19;;;;;;;9.80;5.32;;;28.10;61.00;;;;;;5013773;28;20107;-66
2023/06/16 07:16:44;;;;;;;8.88;5.20;;;27.90;61.40;;;;;;5014600;28;20123;-66
2023/06/16 07:19:10;;;;;;;10.15;6.30;;;27.90;60.50;;;;;;5014824;28;20077;-66
2023/06/16 07:21:38;;;;;;;8.68;5.00;;;27.70;59.50;;;;;;5014773;28;20038;-66
2023/06/16 07:24:05;;;;;;;6.97;4.97;;;28.00;61.50;;;;;;5014793;28;20089;-66
2023/06/16 07:26:31;;;;;;;8.63;4.63;;;27.80;60.10;;;;;;5014695;28;20044;-66
2023/06/16 07:28:57;;;;;;;7.70;5.10;;;28.10;59.20;;;;;;5013033;28;20124;-66
2023/06/16 07:31:22;;;;;;;8.77;5.20;;;28.10;58.90;;;;;;5013136;28;20107;-66
2023/06/16 07:33:48;;;;;;;8.48;5.00;;;28.30;58.40;;;;;;5014585;28;20068;-66
2023/06/16 07:36:14;;;;;;;9.60;4.90;;;28.50;56.90;;;;;;5014299;28;20045;-66
2023/06/16 07:38:40;;;;;;;8.05;5.43;;;28.00;56.50;;;;;;5012804;28;20046;-66
2023/06/16 07:41:07;;;;;;;7.30;5.35;;;27.80;56.60;;;;;;4996548;28;20042;-66
2023/06/16 07:43:33;;;;;;;7.95;5.15;;;27.40;57.10;;;;;;5014216;28;20045;-66
2023/06/16 07:45:59;;;;;;;6.80;4.50;;;27.60;57.30;;;;;;5014338;28;20108;-66
2023/06/16 07:48:25;;;;;;;8.40;4.35;;;27.90;57.10;;;;;;5012941;28;20081;-66
2023/06/16 07:50:53;;;;;;;7.72;4.85;;;28.10;57.20;;;;;;5014118;28;20100;-66
2023/06/16 07:53:20;;;;;;;7.43;5.35;;;28.30;56.60;;;;;;5013109;28;20045;-66
2023/06/16 07:55:46;;;;;;;8.00;5.20;;;28.50;55.80;;;;;;5012738;28;20042;-66
2023/06/16 07:58:12;;;;;;;8.23;5.60;;;28.40;55.30;;;;;;5014023;28;20120;-66
2023/06/16 08:00:37;;;;;;;9.25;5.47;;;27.90;55.40;;;;;;5013819;28;20042;-66
2023/06/16 08:03:03;;;;;;;7.93;5.03;;;27.90;56.50;;;;;;5014089;28;20065;-66
2023/06/16 08:05:29;;;;;;;7.03;5.00;;;27.80;56.60;;;;;;5013821;28;20485;-66
2023/06/16 08:07:55;;;;;;;8.43;4.90;;;27.80;56.80;;;;;;5012462;28;20084;-66
2023/06/16 08:10:21;;;;;;;7.20;4.60;;;28.00;56.40;;;;;;5013624;28;20147;-66
2023/06/16 08:12:49;;;;;;;9.80;4.90;;;28.60;56.00;;;;;;5012435;28;20515;-66
2023/06/16 08:15:16;;;;;;;9.00;5.38;;;28.80;54.40;;;;;;5012816;28;20048;-66
2023/06/16 08:17:42;;;;;;;9.25;5.50;;;28.40;53.70;;;;;;5012342;28;20042;-66
2023/06/16 08:20:09;;;;;;;6.95;4.88;;;27.90;53.90;;;;;;5012726;28;20405;-66
2023/06/16 08:22:35;;;;;;;10.38;5.07;;;27.40;55.10;;;;;;5013541;28;20041;-66
2023/06/16 08:25:02;;;;;;;7.05;4.43;;;27.40;55.70;;;;;;5013805;28;20045;-66
2023/06/16 08:27:27;;;;;;;7.00;4.55;;;27.40;55.50;;;;;;5013787;28;20077;-66
2023/06/16 08:29:53;;;;;;;6.75;4.50;;;27.30;55.80;;;;;;5013322;28;20139;-66
2023/06/16 08:32:19;;;;;;;6.90;4.72;;;27.50;55.80;;;;;;5013448;28;20061;-68
2023/06/16 08:34:45;;;;;;;7.18;4.47;;;27.50;54.60;;;;;;5012197;28;20064;-66
2023/06/16 08:37:11;;;;;;;6.93;4.25;;;27.40;56.00;;;;;;5013345;28;20128;-66
2023/06/16 08:39:37;;;;;;;6.80;4.22;;;27.50;55.90;;;;;;5012995;28;20041;-66
2023/06/16 08:42:03;;;;;;;6.63;4.50;;;27.40;54.60;;;;;;5013231;28;20042;-66
2023/06/16 08:44:32;;;;;;;6.68;4.10;;;27.40;54.80;;;;;;5013606;28;20436;-66
2023/06/16 08:46:58;;;;;;;8.23;4.85;;;27.70;55.10;;;;;;5013246;28;20045;-66
2023/06/16 08:49:25;;;;;;;7.00;4.60;;;27.60;54.30;;;;;;5013182;28;20121;-66
2023/06/16 08:51:53;;;;;;;7.68;5.00;;;27.40;54.70;;;;;;5013414;28;20116;-66
2023/06/16 08:54:20;;;;;;;6.55;4.28;;;27.50;54.90;;;;;;5012135;28;20445;-66
2023/06/16 08:56:47;;;;;;;7.65;4.38;;;27.70;55.40;;;;;;5012154;28;20370;-66
2023/06/16 08:59:17;;;;;;;7.53;4.50;;;27.40;54.60;;;;;;5011914;28;20477;-66
2023/06/16 09:01:43;;;;;;;7.38;4.20;;;27.80;54.90;;;;;;5013299;28;20049;-66
2023/06/16 09:04:09;;;;;;;6.47;3.97;;;28.10;55.20;;;;;;5013301;28;20370;-66
2023/06/16 09:06:44;;;;;;;7.95;4.22;;;28.20;54.30;;;;;;5013213;28;20040;-66
2023/06/16 09:09:09;;;;;;;7.25;4.18;;;28.50;54.60;;;;;;5011742;28;20046;-66
2023/06/16 09:11:35;;;;;;;6.45;4.40;;;28.70;53.10;;;;;;5012809;28;20437;-66
2023/06/16 09:14:21;;;;;;;7.35;4.47;;;28.50;52.60;;;;;;5013151;28;20050;-66
2023/06/16 09:16:55;;;;;;;6.43;4.60;;;28.00;51.50;;;;;;5012651;28;20054;-66
2023/06/16 09:19:21;;;;;;;6.75;4.30;;;27.70;52.80;;;;;;5011501;28;20108;-66
2023/06/16 09:21:53;;;;;;;6.63;4.43;;;27.70;53.70;;;;;;5012078;28;20049;-66
2023/06/16 09:24:23;;;;;;;;;;;27.70;53.90;;;;;;5013672;28;20517;-66
2023/06/16 09:26:52;;;;;;;7.53;4.70;;;27.80;54.10;;;;;;5012875;28;19921;-66
2023/06/16 09:29:27;;;;;;;7.32;4.22;;;27.70;54.60;;;;;;5013116;28;20046;-66
2023/06/16 09:31:53;;;;;;;7.53;4.38;;;28.00;54.70;;;;;;5012793;28;20038;-66
2023/06/16 09:34:19;;;;;;;8.20;4.90;;;28.10;53.50;;;;;;5012805;28;20042;-66
2023/06/16 09:36:45;;;;;;;6.63;4.20;;;27.80;54.40;;;;;;5012787;28;20113;-66
2023/06/16 09:39:25;;;;;;;6.53;4.00;;;28.10;54.10;;;;;;5012883;28;20056;-66
2023/06/16 09:41:52;;;;;;;9.25;5.53;;;28.20;54.00;;;;;;4995211;28;20108;-66
2023/06/16 09:44:18;;;;;;;6.68;4.28;;;27.80;53.10;;;;;;5012661;28;20117;-66
2023/06/16 09:46:46;;;;;;;7.28;4.55;;;27.80;55.10;;;;;;5013003;28;20042;-66
2023/06/16 09:49:32;;;;;;;7.78;4.53;;;27.80;53.10;;;;;;5012617;28;20041;-66
2023/06/16 09:51:58;;;;;;;7.20;4.30;;;27.80;53.50;;;;;;5011581;28;20056;-66
2023/06/16 09:54:27;;;;;;;7.93;3.65;;;28.00;54.20;;;;;;5016438;28;20042;-66
2023/06/16 09:56:55;;;;;;;6.80;4.00;;;28.30;54.10;;;;;;5016175;28;20042;-66
2023/06/16 09:59:23;;;;;;;6.80;3.95;;;28.70;52.40;;;;;;5015870;28;20034;-66
2023/06/16 10:01:53;;;;;;;6.88;3.92;;;28.20;50.40;;;;;;5015072;28;20041;-66
2023/06/16 10:04:21;;;;;;;6.28;3.70;;;28.10;51.20;;;;;;5016314;28;20041;-66
2023/06/16 10:06:56;;;;;;;6.38;3.78;;;28.30;51.50;;;;;;5016274;28;20041;-66
2023/06/16 10:09:27;;;;;;;6.70;4.00;;;28.30;49.40;;;;;;5016150;28;20049;-66
2023/06/16 10:11:57;;;;;;;7.30;3.83;;;28.50;49.20;;;;;;5015773;28;20058;-66
2023/06/16 10:14:29;;;;;;;6.75;3.70;;;28.50;49.40;;;;;;5016124;28;20038;-66
2023/06/16 10:16:58;;;;;;;6.43;3.67;;;28.70;50.20;;;;;;5015985;28;20038;-66
2023/06/16 10:19:25;;;;;;;5.93;3.42;;;28.50;48.20;;;;;;5015675;28;20041;-66
2023/06/16 10:21:53;;;;;;;6.60;3.92;;;28.70;48.50;;;;;;5014743;28;20077;-66
2023/06/16 10:24:20;;;;;;;5.30;3.40;;;28.60;47.00;;;;;;5014418;28;20155;-66
2023/06/16 10:26:46;;;;;;;5.72;3.22;;;28.40;47.30;;;;;;5015547;28;20038;-66
2023/06/16 10:29:16;;;;;;;6.35;3.22;;;28.10;43.90;;;;;;5015753;28;20068;-66
2023/06/16 10:31:44;;;;;;;7.07;3.30;;;27.90;44.40;;;;;;5014170;28;20058;-66
2023/06/16 10:34:21;;;;;;;5.10;3.00;;;28.20;45.30;;;;;;5015731;28;20046;-66
2023/06/16 10:36:49;;;;;;;6.50;3.20;;;28.50;43.70;;;;;;5015421;28;20088;-66
2023/06/16 10:39:16;;;;;;;5.68;3.22;;;28.40;42.70;;;;;;5015235;28;20038;-66
2023/06/16 10:41:51;;;;;;;6.10;3.10;;;28.70;43.60;;;;;;5015543;28;20046;-66
2023/06/16 10:44:43;;;;;;;5.60;3.10;;;28.60;42.00;;;;;;5015335;28;20042;-66
2023/06/16 10:47:09;;;;;;;6.13;3.00;;;28.50;41.00;;;;;;5012586;28;20050;-66
2023/06/16 10:49:55;;;;;;;6.10;3.05;;;28.50;39.70;;;;;;5015424;28;20554;-66
2023/06/16 10:52:33;;;;;;;5.72;3.17;;;28.40;40.70;;;;;;5015137;28;20096;-66
2023/06/16 10:55:22;;;;;;;5.07;3.05;;;28.30;41.00;;;;;;5015239;28;20539;-67
2023/06/16 10:58:19;;;;;;;6.88;3.22;;;28.30;40.90;;;;;;5003421;28;20497;-66
2023/06/16 11:00:58;;;;;;;5.75;2.92;;;28.00;40.10;;;;;;5004932;28;20097;-66
2023/06/16 11:03:37;;;;;;;5.40;3.00;;;28.20;39.90;;;;;;5013485;28;20037;-65
2023/06/16 11:06:04;;;;;;;6.18;3.17;;;28.20;38.50;;;;;;5013435;28;20041;-65
2023/06/16 11:08:47;;;;;;;5.45;2.80;;;28.30;39.10;;;;;;5015061;28;20041;-65
2023/06/16 11:11:13;;;;;;;8.63;2.92;;;28.50;38.70;;;;;;4996868;28;20050;-66
2023/06/16 11:13:39;;;;;;;6.47;2.88;;;28.50;39.30;;;;;;5013449;28;20093;-66
2023/06/16 11:16:07;;;;;;;5.35;2.90;;;28.50;39.00;;;;;;5013440;28;20077;-66
2023/06/16 11:18:33;;;;;;;6.75;2.80;;;28.60;38.30;;;;;;5013278;28;20040;-67
2023/06/16 11:21:02;;;;;;;6.75;2.80;;;28.30;38.50;;;;;;5013333;28;20104;-68
2023/06/16 11:23:28;;;;;;;6.80;2.75;;;28.40;38.50;;;;;;5014556;28;20034;-66
2023/06/16 11:26:04;;;;;;;6.15;2.83;;;28.40;39.30;;;;;;5013424;28;20497;-66
2023/06/16 11:28:30;;;;;;;6.00;3.00;;;28.60;39.50;;;;;;5014464;28;20084;-66
2023/06/16 11:30:56;;;;;;;6.95;3.10;;;28.70;38.80;;;;;;5014490;28;20505;-66
2023/06/16 11:33:22;;;;;;;6.15;2.90;;;28.50;39.10;;;;;;5013104;28;20074;-67
2023/06/16 11:35:48;;;;;;;5.30;2.90;;;28.30;39.10;;;;;;5014273;28;20042;-66
2023/06/16 11:38:23;;;;;;;5.68;2.80;;;28.20;39.20;;;;;;5014188;28;20099;-66
2023/06/16 11:40:50;;;;;;;6.22;2.90;;;28.50;39.70;;;;;;5014485;28;20072;-65
2023/06/16 11:43:18;;;;;;;6.25;3.10;;;28.30;37.70;;;;;;5014156;28;20104;-65
2023/06/16 11:45:44;;;;;;;5.13;2.90;;;28.20;38.40;;;;;;4997083;28;20367;-65
2023/06/16 11:48:10;;;;;;;6.50;2.80;;;28.30;38.90;;;;;;5013963;28;20046;-65
2023/06/16 11:50:37;;;;;;;5.80;2.90;;;28.50;39.40;;;;;;5014009;28;20042;-66
2023/06/16 11:53:03;;;;;;;6.10;2.83;;;28.70;39.70;;;;;;5013916;28;20052;-65
2023/06/16 11:55:29;;;;;;;7.50;3.20;;;28.70;38.90;;;;;;5014034;28;20127;-65
2023/06/16 11:57:57;;;;;;;6.78;2.83;;;28.90;39.60;;;;;;5013881;28;20073;-65
2023/06/16 12:00:23;;;;;;;6.00;2.80;;;28.90;38.60;;;;;;5013826;28;20138;-66
2023/06/16 12:02:50;;;;;;;5.50;2.80;;;28.50;36.80;;;;;;5013927;28;20041;-65
2023/06/16 12:05:25;;;;;;;4.90;2.80;;;28.30;37.80;;;;;;5014126;28;20038;-65
2023/06/16 12:07:51;;;;;;;5.60;2.63;;;28.20;36.80;;;;;;5012441;28;20046;-65
2023/06/16 12:10:17;;;;;;;6.70;2.90;;;28.40;38.30;;;;;;5010953;28;20128;-66
2023/06/16 12:12:44;;;;;;;5.70;2.70;;;28.50;38.70;;;;;;5013725;28;20050;-66
2023/06/16 12:15:17;;;;;;;7.47;2.97;;;28.40;38.50;;;;;;5013567;28;20041;-66
2023/06/16 12:17:43;;;;;;;6.32;2.88;;;28.20;38.10;;;;;;5012248;28;20041;-66
2023/06/16 12:20:11;;;;;;;7.70;2.75;;;28.20;38.90;;;;;;5012188;28;20064;-66
2023/06/16 12:22:38;;;;;;;5.32;3.00;;;28.30;39.10;;;;;;5011733;28;20113;-66
2023/06/16 12:25:15;;;;;;;4.85;2.70;;;28.10;38.50;;;;;;5013644;28;20042;-66
2023/06/16 12:27:49;;;;;;;5.70;2.97;;;28.10;38.60;;;;;;5011467;28;20040;-66
2023/06/16 12:30:15;;;;;;;6.47;2.90;;;28.20;39.70;;;;;;5012338;28;20038;-65
2023/06/16 12:32:42;;;;;;;5.20;2.80;;;28.10;38.10;;;;;;5013535;28;20038;-66
2023/06/16 12:35:09;;;;;;;6.32;2.75;;;28.20;38.50;;;;;;5013592;28;20037;-65
2023/06/16 12:37:38;;;;;;;5.68;3.00;;;28.40;39.30;;;;;;5013198;28;20076;-65
2023/06/16 12:40:07;;;;;;;5.13;2.90;;;28.70;38.50;;;;;;5013376;28;20041;-65
2023/06/16 12:42:34;;;;;;;5.45;2.80;;;28.90;38.60;;;;;;5013504;28;20046;-66
2023/06/16 12:45:02;;;;;;;6.30;3.30;;;29.00;38.80;;;;;;5012550;28;20042;-66
2023/06/16 12:47:32;;;;;;;5.68;2.95;;;28.70;38.10;;;;;;5013222;28;20041;-66
2023/06/16 12:50:00;;;;;;;5.40;2.72;;;28.70;38.70;;;;;;5013124;28;20042;-66